Hovedside
METAR-TAF:

METAR-TAF

Lufthavner :

Vadsø lufthavn

Vadsø, Norge

breddegrad: 70-04N, lengdegrad: 029-51E, høyde over havet: 3 m

Gjeldene værobservasjon

Denne rapporten ble laget for 32 minutter siden, klokken 19:50 UTC
Vind 10 kt fra Vest
Temperatur -1°C
Luftfuktighet 100%
Trykk 1006 hPa
Sikt 10 km eller mer
Brutte skyer i en høyde av 1800 ft
lett snø

METAR: ENVD 141950Z 28010KT 9999 -SN BKN018 M01/M01 Q1006

Tid: 21:22 (20:22 UTC)

Varsel

Denne rapporten ble laget for 3 timer og 22 minutter siden, klokken 17:00 UTC
Varsel gyldig fra 14. klokken 18 UTC til 14. klokken 24 UTC
Vind 8 kt fra Nord-nordvest
Sikt 10 km eller mer
Få skyer i en høyde av 1000 ft
Brutte skyer i en høyde av 1800 ft
lett snø
Midlertidig
fra 14. klokken 18 UTC til 14. klokken 21 UTC
Sikt: 4000 m
Brutte skyer i en høyde av 600 ft
lett snø

TAF: ENVD 141700Z 1418/1424 33008KT 9999 -SN FEW010 BKN018 TEMPO 1418/1421 4000 -SN BKN006

Værobservasjoner og værvarsel for over 4000 flyplasser (METAR- og TAF-rapporter).

Tilgjengelige stasjoner er representert av de røde og gule prikkene på kartet.

Hold musepekeren over prikken for å se navnet på stasjonen.

Klikk så for å se værobservasjoner og -varsler.

For å forandre kartet kan du klikke på den grønne knappen med svart kryss for å zoome inn, på den grønne knappen med strek for å zoome ut, eller på de grønne pilene for å se tilstøtende kart.


METAR-TAF: